sensor_id;sensor_type;location;lat;lon;timestamp;pressure;altitude;pressure_sealevel;temperature;humidity
5053;BME280;2545;50.892;5.740;2023-03-13T00:00:15;56412.13;;;-142.21;100.00
5053;BME280;2545;50.892;5.740;2023-03-13T00:02:41;56339.56;;;-142.21;100.00
5053;BME280;2545;50.892;5.740;2023-03-13T00:05:09;56374.84;;;-142.21;100.00
5053;BME280;2545;50.892;5.740;2023-03-13T00:07:35;56353.28;;;-142.21;100.00
5053;BME280;2545;50.892;5.740;2023-03-13T00:10:00;56363.09;;;-142.21;100.00
5053;BME280;2545;50.892;5.740;2023-03-13T00:12:25;56361.13;;;-142.21;99.27
5053;BME280;2545;50.892;5.740;2023-03-13T00:14:51;56357.22;;;-142.21;97.76
5053;BME280;2545;50.892;5.740;2023-03-13T00:17:16;56361.13;;;-142.21;97.79
5053;BME280;2545;50.892;5.740;2023-03-13T00:19:41;56353.28;;;-142.21;96.91
5053;BME280;2545;50.892;5.740;2023-03-13T00:22:07;56347.41;;;-142.21;96.49
5053;BME280;2545;50.892;5.740;2023-03-13T00:24:32;56372.91;;;-142.21;95.10
5053;BME280;2545;50.892;5.740;2023-03-13T00:26:58;56390.53;;;-142.21;94.65
5053;BME280;2545;50.892;5.740;2023-03-13T00:29:27;56355.25;;;-142.21;93.64
5053;BME280;2545;50.892;5.740;2023-03-13T00:31:52;56343.47;;;-142.21;93.98
5053;BME280;2545;50.892;5.740;2023-03-13T00:34:18;56382.69;;;-142.21;97.47
5053;BME280;2545;50.892;5.740;2023-03-13T00:36:43;56337.59;;;-142.21;100.00
5053;BME280;2545;50.892;5.740;2023-03-13T00:39:09;56351.31;;;-142.21;100.00
5053;BME280;2545;50.892;5.740;2023-03-13T00:41:35;56335.63;;;-142.21;100.00
5053;BME280;2545;50.892;5.740;2023-03-13T00:44:01;56372.91;;;-142.21;100.00
5053;BME280;2545;50.892;5.740;2023-03-13T00:46:28;56372.91;;;-142.21;100.00
5053;BME280;2545;50.892;5.740;2023-03-13T00:48:53;56368.97;;;-142.21;100.00
5053;BME280;2545;50.892;5.740;2023-03-13T00:51:20;56357.22;;;-142.21;100.00
5053;BME280;2545;50.892;5.740;2023-03-13T00:53:46;56335.63;;;-142.21;100.00
5053;BME280;2545;50.892;5.740;2023-03-13T00:56:13;56372.91;;;-142.21;100.00
5053;BME280;2545;50.892;5.740;2023-03-13T00:58:40;56374.84;;;-142.21;100.00
5053;BME280;2545;50.892;5.740;2023-03-13T01:01:07;56345.44;;;-142.21;100.00
5053;BME280;2545;50.892;5.740;2023-03-13T01:03:34;56367.00;;;-142.21;100.00
5053;BME280;2545;50.892;5.740;2023-03-13T01:06:01;56361.13;;;-142.21;100.00
5053;BME280;2545;50.892;5.740;2023-03-13T01:08:28;56361.13;;;-142.21;100.00
5053;BME280;2545;50.892;5.740;2023-03-13T01:13:25;56367.00;;;-142.21;100.00
5053;BME280;2545;50.892;5.740;2023-03-13T01:15:50;56339.56;;;-142.21;100.00
5053;BME280;2545;50.892;5.740;2023-03-13T01:18:15;56406.22;;;-142.21;100.00
5053;BME280;2545;50.892;5.740;2023-03-13T01:20:41;56388.59;;;-142.21;100.00
5053;BME280;2545;50.892;5.740;2023-03-13T01:23:06;56390.53;;;-142.21;100.00
5053;BME280;2545;50.892;5.740;2023-03-13T01:25:35;56386.63;;;-142.21;100.00
5053;BME280;2545;50.892;5.740;2023-03-13T01:28:01;56394.47;;;-142.21;100.00
5053;BME280;2545;50.892;5.740;2023-03-13T01:30:27;56394.47;;;-142.21;100.00
5053;BME280;2545;50.892;5.740;2023-03-13T01:32:52;56404.28;;;-142.21;100.00
5053;BME280;2545;50.892;5.740;2023-03-13T01:35:18;56365.06;;;-142.21;100.00
5053;BME280;2545;50.892;5.740;2023-03-13T01:37:43;56382.69;;;-142.21;100.00
5053;BME280;2545;50.892;5.740;2023-03-13T01:40:09;56384.66;;;-142.21;100.00
5053;BME280;2545;50.892;5.740;2023-03-13T01:42:55;56367.00;;;-142.21;100.00
5053;BME280;2545;50.892;5.740;2023-03-13T01:45:53;56382.69;;;-142.21;100.00
5053;BME280;2545;50.892;5.740;2023-03-13T01:48:40;56374.84;;;-142.21;100.00
5053;BME280;2545;50.892;5.740;2023-03-13T01:51:09;56402.31;;;-142.21;100.00
5053;BME280;2545;50.892;5.740;2023-03-13T01:53:38;56367.00;;;-142.21;100.00
5053;BME280;2545;50.892;5.740;2023-03-13T01:56:07;56370.94;;;-142.21;100.00
5053;BME280;2545;50.892;5.740;2023-03-13T01:58:36;56374.84;;;-142.21;100.00
5053;BME280;2545;50.892;5.740;2023-03-13T02:01:02;56396.44;;;-142.21;100.00
5053;BME280;2545;50.892;5.740;2023-03-13T02:03:29;56349.38;;;-142.21;100.00
5053;BME280;2545;50.892;5.740;2023-03-13T02:05:56;56367.00;;;-142.21;100.00
5053;BME280;2545;50.892;5.740;2023-03-13T02:08:30;56408.19;;;-142.21;100.00
5053;BME280;2545;50.892;5.740;2023-03-13T02:11:12;56384.66;;;-142.21;100.00
5053;BME280;2545;50.892;5.740;2023-03-13T02:13:41;56363.09;;;-142.21;100.00
5053;BME280;2545;50.892;5.740;2023-03-13T02:16:07;56382.69;;;-142.21;100.00
5053;BME280;2545;50.892;5.740;2023-03-13T02:18:35;56372.91;;;-142.21;100.00
5053;BME280;2545;50.892;5.740;2023-03-13T02:21:10;56374.84;;;-142.21;100.00
5053;BME280;2545;50.892;5.740;2023-03-13T02:23:47;56361.13;;;-142.21;100.00
5053;BME280;2545;50.892;5.740;2023-03-13T02:26:14;56406.22;;;-142.21;100.00
5053;BME280;2545;50.892;5.740;2023-03-13T02:28:40;56365.06;;;-142.21;100.00
5053;BME280;2545;50.892;5.740;2023-03-13T02:31:05;56367.00;;;-142.21;100.00
5053;BME280;2545;50.892;5.740;2023-03-13T02:33:35;56368.97;;;-142.21;100.00
5053;BME280;2545;50.892;5.740;2023-03-13T02:36:02;56367.00;;;-142.21;100.00
5053;BME280;2545;50.892;5.740;2023-03-13T02:38:30;56404.28;;;-142.21;100.00
5053;BME280;2545;50.892;5.740;2023-03-13T02:40:58;56386.63;;;-142.21;100.00
5053;BME280;2545;50.892;5.740;2023-03-13T02:43:33;56382.69;;;-142.21;100.00
5053;BME280;2545;50.892;5.740;2023-03-13T02:48:31;56378.78;;;-142.21;100.00
5053;BME280;2545;50.892;5.740;2023-03-13T02:50:57;56367.00;;;-142.21;100.00
5053;BME280;2545;50.892;5.740;2023-03-13T02:53:22;56351.31;;;-142.21;100.00
5053;BME280;2545;50.892;5.740;2023-03-13T02:55:48;56363.09;;;-142.21;100.00
5053;BME280;2545;50.892;5.740;2023-03-13T02:58:13;56392.50;;;-142.21;100.00
5053;BME280;2545;50.892;5.740;2023-03-13T03:00:38;56378.78;;;-142.21;100.00
5053;BME280;2545;50.892;5.740;2023-03-13T03:03:04;56365.06;;;-142.21;100.00
5053;BME280;2545;50.892;5.740;2023-03-13T03:05:29;56402.31;;;-142.21;100.00
5053;BME280;2545;50.892;5.740;2023-03-13T03:07:54;56378.78;;;-142.21;100.00
5053;BME280;2545;50.892;5.740;2023-03-13T03:10:20;56382.69;;;-142.21;100.00
5053;BME280;2545;50.892;5.740;2023-03-13T03:12:45;56400.34;;;-142.21;100.00
5053;BME280;2545;50.892;5.740;2023-03-13T03:15:11;56382.69;;;-142.21;100.00
5053;BME280;2545;50.892;5.740;2023-03-13T03:17:36;56323.88;;;-142.21;100.00
5053;BME280;2545;50.892;5.740;2023-03-13T03:20:02;56398.38;;;-142.21;100.00
5053;BME280;2545;50.892;5.740;2023-03-13T03:22:31;56359.16;;;-142.21;100.00
5053;BME280;2545;50.892;5.740;2023-03-13T03:24:57;56365.06;;;-142.21;100.00
5053;BME280;2545;50.892;5.740;2023-03-13T03:27:23;56370.94;;;-142.21;100.00
5053;BME280;2545;50.892;5.740;2023-03-13T03:29:48;56414.06;;;-142.21;100.00
5053;BME280;2545;50.892;5.740;2023-03-13T03:32:13;56351.31;;;-142.21;100.00
5053;BME280;2545;50.892;5.740;2023-03-13T03:34:39;56382.69;;;-142.21;100.00
5053;BME280;2545;50.892;5.740;2023-03-13T03:37:04;56386.63;;;-142.21;100.00
5053;BME280;2545;50.892;5.740;2023-03-13T03:39:29;56392.50;;;-142.21;100.00
5053;BME280;2545;50.892;5.740;2023-03-13T03:41:54;56386.63;;;-142.21;100.00
5053;BME280;2545;50.892;5.740;2023-03-13T03:44:20;56374.84;;;-142.21;100.00
5053;BME280;2545;50.892;5.740;2023-03-13T03:46:45;56365.06;;;-142.21;100.00
5053;BME280;2545;50.892;5.740;2023-03-13T03:49:10;56323.88;;;-142.21;100.00
5053;BME280;2545;50.892;5.740;2023-03-13T03:51:35;56365.06;;;-142.21;100.00
5053;BME280;2545;50.892;5.740;2023-03-13T03:54:01;56376.81;;;-142.21;100.00
5053;BME280;2545;50.892;5.740;2023-03-13T03:56:26;56347.41;;;-142.21;100.00
5053;BME280;2545;50.892;5.740;2023-03-13T03:58:51;56404.28;;;-142.21;100.00
5053;BME280;2545;50.892;5.740;2023-03-13T04:01:17;56404.28;;;-142.21;100.00
5053;BME280;2545;50.892;5.740;2023-03-13T04:03:42;56394.47;;;-142.21;100.00
5053;BME280;2545;50.892;5.740;2023-03-13T04:06:07;56414.06;;;-142.21;100.00
5053;BME280;2545;50.892;5.740;2023-03-13T04:08:34;56365.06;;;-142.21;100.00
5053;BME280;2545;50.892;5.740;2023-03-13T04:11:00;56339.56;;;-142.21;100.00
5053;BME280;2545;50.892;5.740;2023-03-13T04:13:26;56357.22;;;-142.21;100.00
5053;BME280;2545;50.892;5.740;2023-03-13T04:15:51;56372.91;;;-142.21;100.00
5053;BME280;2545;50.892;5.740;2023-03-13T04:18:16;56374.84;;;-142.21;100.00
5053;BME280;2545;50.892;5.740;2023-03-13T04:20:42;56329.75;;;-142.21;100.00
5053;BME280;2545;50.892;5.740;2023-03-13T04:23:07;56359.16;;;-142.21;100.00
5053;BME280;2545;50.892;5.740;2023-03-13T04:25:33;56376.81;;;-142.21;100.00
5053;BME280;2545;50.892;5.740;2023-03-13T04:27:58;56374.84;;;-142.21;100.00
5053;BME280;2545;50.892;5.740;2023-03-13T04:30:23;56382.69;;;-142.21;100.00
5053;BME280;2545;50.892;5.740;2023-03-13T04:32:49;56355.25;;;-142.21;100.00
5053;BME280;2545;50.892;5.740;2023-03-13T04:35:15;56384.66;;;-142.21;100.00
5053;BME280;2545;50.892;5.740;2023-03-13T04:37:41;56394.47;;;-142.21;100.00
5053;BME280;2545;50.892;5.740;2023-03-13T04:40:06;56378.78;;;-142.21;100.00
5053;BME280;2545;50.892;5.740;2023-03-13T04:42:32;56365.06;;;-142.21;100.00
5053;BME280;2545;50.892;5.740;2023-03-13T04:44:57;56361.13;;;-142.21;100.00
5053;BME280;2545;50.892;5.740;2023-03-13T04:47:22;56361.13;;;-142.21;100.00
5053;BME280;2545;50.892;5.740;2023-03-13T04:49:48;56365.06;;;-142.21;100.00
5053;BME280;2545;50.892;5.740;2023-03-13T04:52:13;56327.78;;;-142.21;100.00
5053;BME280;2545;50.892;5.740;2023-03-13T04:54:38;56355.25;;;-142.21;100.00
5053;BME280;2545;50.892;5.740;2023-03-13T04:57:04;56357.22;;;-142.21;100.00
5053;BME280;2545;50.892;5.740;2023-03-13T04:59:29;56406.22;;;-142.21;100.00
5053;BME280;2545;50.892;5.740;2023-03-13T05:01:54;56367.00;;;-142.21;100.00
5053;BME280;2545;50.892;5.740;2023-03-13T05:04:21;56374.84;;;-142.21;100.00
5053;BME280;2545;50.892;5.740;2023-03-13T05:06:46;56367.00;;;-142.21;100.00
5053;BME280;2545;50.892;5.740;2023-03-13T05:09:11;56367.00;;;-142.21;100.00
5053;BME280;2545;50.892;5.740;2023-03-13T05:11:37;56347.41;;;-142.21;100.00
5053;BME280;2545;50.892;5.740;2023-03-13T05:14:04;56361.13;;;-142.21;100.00
5053;BME280;2545;50.892;5.740;2023-03-13T05:16:29;56335.63;;;-142.21;100.00
5053;BME280;2545;50.892;5.740;2023-03-13T05:18:55;56372.91;;;-142.21;100.00
5053;BME280;2545;50.892;5.740;2023-03-13T05:21:20;56368.97;;;-142.21;100.00
5053;BME280;2545;50.892;5.740;2023-03-13T05:23:45;56394.47;;;-142.21;100.00
5053;BME280;2545;50.892;5.740;2023-03-13T05:26:11;56361.13;;;-142.21;100.00
5053;BME280;2545;50.892;5.740;2023-03-13T05:28:36;56384.66;;;-142.21;100.00
5053;BME280;2545;50.892;5.740;2023-03-13T05:31:01;56394.47;;;-142.21;100.00
5053;BME280;2545;50.892;5.740;2023-03-13T05:33:27;56396.44;;;-142.21;100.00
5053;BME280;2545;50.892;5.740;2023-03-13T05:35:52;56359.16;;;-142.21;100.00
5053;BME280;2545;50.892;5.740;2023-03-13T05:38:17;56351.31;;;-142.21;100.00
5053;BME280;2545;50.892;5.740;2023-03-13T05:40:43;56347.41;;;-142.21;100.00
5053;BME280;2545;50.892;5.740;2023-03-13T05:43:08;56418.00;;;-142.21;100.00
5053;BME280;2545;50.892;5.740;2023-03-13T05:45:33;56372.91;;;-142.21;100.00
5053;BME280;2545;50.892;5.740;2023-03-13T05:47:58;56372.91;;;-142.21;100.00
5053;BME280;2545;50.892;5.740;2023-03-13T05:50:24;56351.31;;;-142.21;100.00
5053;BME280;2545;50.892;5.740;2023-03-13T05:52:50;56357.22;;;-142.21;100.00
5053;BME280;2545;50.892;5.740;2023-03-13T05:55:17;56339.56;;;-142.21;100.00
5053;BME280;2545;50.892;5.740;2023-03-13T05:57:46;56341.53;;;-142.21;100.00
5053;BME280;2545;50.892;5.740;2023-03-13T06:00:13;56335.63;;;-142.21;100.00
5053;BME280;2545;50.892;5.740;2023-03-13T06:02:39;56359.16;;;-142.21;100.00
5053;BME280;2545;50.892;5.740;2023-03-13T06:05:05;56367.00;;;-142.21;100.00
5053;BME280;2545;50.892;5.740;2023-03-13T06:07:30;56380.75;;;-142.21;100.00
5053;BME280;2545;50.892;5.740;2023-03-13T06:09:56;56378.78;;;-142.21;100.00
5053;BME280;2545;50.892;5.740;2023-03-13T06:12:21;56363.09;;;-142.21;100.00
5053;BME280;2545;50.892;5.740;2023-03-13T06:14:46;56319.94;;;-142.21;100.00
5053;BME280;2545;50.892;5.740;2023-03-13T06:17:12;56339.56;;;-142.21;100.00
5053;BME280;2545;50.892;5.740;2023-03-13T06:19:37;56345.44;;;-142.21;100.00
5053;BME280;2545;50.892;5.740;2023-03-13T06:22:02;56343.47;;;-142.21;100.00
5053;BME280;2545;50.892;5.740;2023-03-13T06:24:28;56365.06;;;-142.21;100.00
5053;BME280;2545;50.892;5.740;2023-03-13T06:26:53;56341.53;;;-142.21;100.00
5053;BME280;2545;50.892;5.740;2023-03-13T06:29:18;56374.84;;;-142.21;100.00
5053;BME280;2545;50.892;5.740;2023-03-13T06:31:44;56359.16;;;-142.21;100.00
5053;BME280;2545;50.892;5.740;2023-03-13T06:34:11;56331.72;;;-142.21;100.00
5053;BME280;2545;50.892;5.740;2023-03-13T06:36:36;56319.94;;;-142.21;100.00
5053;BME280;2545;50.892;5.740;2023-03-13T06:39:02;56333.69;;;-142.21;98.80
5053;BME280;2545;50.892;5.740;2023-03-13T06:41:28;56374.84;;;-142.21;97.89
5053;BME280;2545;50.892;5.740;2023-03-13T06:43:53;56312.09;;;-142.21;97.97
5053;BME280;2545;50.892;5.740;2023-03-13T06:46:21;56347.41;;;-142.21;96.68
5053;BME280;2545;50.892;5.740;2023-03-13T06:48:48;56363.09;;;-142.21;96.61
5053;BME280;2545;50.892;5.740;2023-03-13T06:51:14;56337.59;;;-142.21;96.17
5053;BME280;2545;50.892;5.740;2023-03-13T06:53:40;56323.88;;;-142.21;94.74
5053;BME280;2545;50.892;5.740;2023-03-13T06:56:06;56341.53;;;-142.21;92.79
5053;BME280;2545;50.892;5.740;2023-03-13T06:58:32;56314.06;;;-142.21;91.92
5053;BME280;2545;50.892;5.740;2023-03-13T07:01:07;56341.53;;;-142.21;92.12
5053;BME280;2545;50.892;5.740;2023-03-13T07:03:34;56321.91;;;-142.21;91.45
5053;BME280;2545;50.892;5.740;2023-03-13T07:06:00;56329.75;;;-142.21;90.93
5053;BME280;2545;50.892;5.740;2023-03-13T07:08:26;56365.06;;;-142.21;91.72
5053;BME280;2545;50.892;5.740;2023-03-13T07:10:53;56327.78;;;-142.21;89.28
5053;BME280;2545;50.892;5.740;2023-03-13T07:13:18;56343.47;;;-142.21;89.78
5053;BME280;2545;50.892;5.740;2023-03-13T07:15:46;56335.63;;;-142.21;89.60
5053;BME280;2545;50.892;5.740;2023-03-13T07:18:12;56325.84;;;-142.21;88.32
5053;BME280;2545;50.892;5.740;2023-03-13T07:20:38;56331.72;;;-142.21;88.19
5053;BME280;2545;50.892;5.740;2023-03-13T07:23:03;56329.75;;;-142.21;89.57
5053;BME280;2545;50.892;5.740;2023-03-13T07:25:28;56337.59;;;-142.21;89.09
5053;BME280;2545;50.892;5.740;2023-03-13T07:27:54;56327.78;;;-142.21;88.94
5053;BME280;2545;50.892;5.740;2023-03-13T07:30:19;56347.41;;;-142.21;89.16
5053;BME280;2545;50.892;5.740;2023-03-13T07:32:44;56333.69;;;-142.21;88.63
5053;BME280;2545;50.892;5.740;2023-03-13T07:35:10;56316.03;;;-142.21;87.74
5053;BME280;2545;50.892;5.740;2023-03-13T07:37:35;56333.69;;;-142.21;88.13
5053;BME280;2545;50.892;5.740;2023-03-13T07:40:01;56331.72;;;-142.21;88.72
5053;BME280;2545;50.892;5.740;2023-03-13T07:42:26;56337.59;;;-142.21;88.09
5053;BME280;2545;50.892;5.740;2023-03-13T07:44:52;56337.59;;;-142.21;89.01
5053;BME280;2545;50.892;5.740;2023-03-13T07:47:17;56327.78;;;-142.21;89.64
5053;BME280;2545;50.892;5.740;2023-03-13T07:49:42;56331.72;;;-142.21;89.00
5053;BME280;2545;50.892;5.740;2023-03-13T07:52:10;56341.53;;;-142.21;89.64
5053;BME280;2545;50.892;5.740;2023-03-13T07:54:35;56339.56;;;-142.21;89.36
5053;BME280;2545;50.892;5.740;2023-03-13T07:57:01;56361.13;;;-142.21;89.95
5053;BME280;2545;50.892;5.740;2023-03-13T07:59:27;56368.97;;;-142.21;89.99
5053;BME280;2545;50.892;5.740;2023-03-13T08:01:52;56331.72;;;-142.21;90.80
5053;BME280;2545;50.892;5.740;2023-03-13T08:04:17;56327.78;;;-142.21;91.29
5053;BME280;2545;50.892;5.740;2023-03-13T08:06:43;56390.53;;;-142.21;90.40
5053;BME280;2545;50.892;5.740;2023-03-13T08:09:09;56306.22;;;-142.21;90.67
5053;BME280;2545;50.892;5.740;2023-03-13T08:11:34;56363.09;;;-142.21;89.94
5053;BME280;2545;50.892;5.740;2023-03-13T08:14:00;56370.94;;;-142.21;89.07
5053;BME280;2545;50.892;5.740;2023-03-13T08:16:27;56367.00;;;-142.21;89.27
5053;BME280;2545;50.892;5.740;2023-03-13T08:18:55;56314.06;;;-142.21;89.54
5053;BME280;2545;50.892;5.740;2023-03-13T08:21:27;56343.47;;;-142.21;89.60
5053;BME280;2545;50.892;5.740;2023-03-13T08:23:57;56306.22;;;-142.21;89.84
5053;BME280;2545;50.892;5.740;2023-03-13T08:26:25;56363.09;;;-142.21;90.42
5053;BME280;2545;50.892;5.740;2023-03-13T08:28:53;56331.72;;;-142.21;90.01
5053;BME280;2545;50.892;5.740;2023-03-13T08:33:52;56341.53;;;-142.21;89.51
5053;BME280;2545;50.892;5.740;2023-03-13T08:36:22;56370.94;;;-142.21;88.40
5053;BME280;2545;50.892;5.740;2023-03-13T08:38:50;56357.22;;;-142.21;89.38
5053;BME280;2545;50.892;5.740;2023-03-13T08:41:18;56337.59;;;-142.21;89.15
5053;BME280;2545;50.892;5.740;2023-03-13T08:43:44;56308.19;;;-142.21;89.46
5053;BME280;2545;50.892;5.740;2023-03-13T08:46:10;56314.06;;;-142.21;90.37
5053;BME280;2545;50.892;5.740;2023-03-13T08:48:35;56331.72;;;-142.21;93.40
5053;BME280;2545;50.892;5.740;2023-03-13T08:51:12;56353.28;;;-142.21;98.04
5053;BME280;2545;50.892;5.740;2023-03-13T08:53:40;56353.28;;;-142.21;95.65
5053;BME280;2545;50.892;5.740;2023-03-13T08:56:06;56343.47;;;-142.21;93.94
5053;BME280;2545;50.892;5.740;2023-03-13T08:58:32;56310.13;;;-142.21;93.62
5053;BME280;2545;50.892;5.740;2023-03-13T09:01:08;56343.47;;;-142.21;96.18
5053;BME280;2545;50.892;5.740;2023-03-13T09:03:34;56390.53;;;-142.21;98.62
5053;BME280;2545;50.892;5.740;2023-03-13T09:06:01;56337.59;;;-142.21;99.51
5053;BME280;2545;50.892;5.740;2023-03-13T09:08:27;56317.97;;;-142.21;98.98
5053;BME280;2545;50.892;5.740;2023-03-13T09:11:00;56339.56;;;-142.21;97.87
5053;BME280;2545;50.892;5.740;2023-03-13T09:13:27;56333.69;;;-142.21;96.06
5053;BME280;2545;50.892;5.740;2023-03-13T09:16:25;56300.34;;;-142.21;92.51
5053;BME280;2545;50.892;5.740;2023-03-13T09:18:50;56343.47;;;-142.21;89.82
5053;BME280;2545;50.892;5.740;2023-03-13T09:21:27;56347.41;;;-142.21;88.55
5053;BME280;2545;50.892;5.740;2023-03-13T09:23:53;56323.88;;;-142.21;86.10
5053;BME280;2545;50.892;5.740;2023-03-13T09:26:19;56319.94;;;-142.21;85.99
5053;BME280;2545;50.892;5.740;2023-03-13T09:28:45;56302.28;;;-142.21;85.45
5053;BME280;2545;50.892;5.740;2023-03-13T09:31:11;56327.78;;;-142.21;85.19
5053;BME280;2545;50.892;5.740;2023-03-13T09:33:37;56308.19;;;-142.21;84.04
5053;BME280;2545;50.892;5.740;2023-03-13T09:36:03;56302.28;;;-142.21;84.60
5053;BME280;2545;50.892;5.740;2023-03-13T09:38:29;56363.09;;;-142.21;84.81
5053;BME280;2545;50.892;5.740;2023-03-13T09:40:54;56304.25;;;-142.21;86.63
5053;BME280;2545;50.892;5.740;2023-03-13T09:43:38;56306.22;;;-142.21;86.87
5053;BME280;2545;50.892;5.740;2023-03-13T09:46:12;56316.03;;;-142.21;86.81
5053;BME280;2545;50.892;5.740;2023-03-13T09:48:45;56317.97;;;-142.21;87.41
5053;BME280;2545;50.892;5.740;2023-03-13T09:51:28;56308.19;;;-142.21;88.56
5053;BME280;2545;50.892;5.740;2023-03-13T09:54:11;56339.56;;;-142.21;87.84
5053;BME280;2545;50.892;5.740;2023-03-13T09:56:56;56290.53;;;-142.21;88.27
5053;BME280;2545;50.892;5.740;2023-03-13T09:59:40;56304.25;;;-142.21;87.68
5053;BME280;2545;50.892;5.740;2023-03-13T10:02:34;56333.69;;;-142.21;87.02
5053;BME280;2545;50.892;5.740;2023-03-13T10:05:09;56284.66;;;-142.21;86.10
5053;BME280;2545;50.892;5.740;2023-03-13T10:07:36;56331.72;;;-142.21;85.35
5053;BME280;2545;50.892;5.740;2023-03-13T10:10:02;56323.88;;;-142.21;85.85
5053;BME280;2545;50.892;5.740;2023-03-13T10:12:31;56325.84;;;-142.21;84.69
5053;BME280;2545;50.892;5.740;2023-03-13T10:15:16;56321.91;;;-142.21;84.30
5053;BME280;2545;50.892;5.740;2023-03-13T10:17:45;56314.06;;;-142.21;83.84
5053;BME280;2545;50.892;5.740;2023-03-13T10:20:24;56327.78;;;-142.21;82.97
5053;BME280;2545;50.892;5.740;2023-03-13T10:22:55;56300.34;;;-142.21;82.58
5053;BME280;2545;50.892;5.740;2023-03-13T10:27:49;56306.22;;;-142.21;81.94
5053;BME280;2545;50.892;5.740;2023-03-13T10:30:32;56302.28;;;-142.21;81.05
5053;BME280;2545;50.892;5.740;2023-03-13T10:33:18;56278.78;;;-142.21;80.69
5053;BME280;2545;50.892;5.740;2023-03-13T10:35:44;56321.91;;;-142.21;78.70
5053;BME280;2545;50.892;5.740;2023-03-13T10:38:17;56323.88;;;-142.21;79.76
5053;BME280;2545;50.892;5.740;2023-03-13T10:40:43;56304.25;;;-142.21;78.57
5053;BME280;2545;50.892;5.740;2023-03-13T10:43:28;56304.25;;;-142.21;77.60
5053;BME280;2545;50.892;5.740;2023-03-13T10:45:53;56306.22;;;-142.21;76.77
5053;BME280;2545;50.892;5.740;2023-03-13T10:48:20;56331.72;;;-142.21;76.68
5053;BME280;2545;50.892;5.740;2023-03-13T10:50:49;56341.53;;;-142.21;75.77
5053;BME280;2545;50.892;5.740;2023-03-13T10:55:59;56314.06;;;-142.21;74.73
5053;BME280;2545;50.892;5.740;2023-03-13T10:58:44;56316.03;;;-142.21;75.18
5053;BME280;2545;50.892;5.740;2023-03-13T11:03:42;56327.78;;;-142.21;73.83
5053;BME280;2545;50.892;5.740;2023-03-13T11:06:24;56292.50;;;-142.21;73.71
5053;BME280;2545;50.892;5.740;2023-03-13T11:09:18;56261.13;;;-142.21;73.17
5053;BME280;2545;50.892;5.740;2023-03-13T11:11:59;56288.56;;;-142.21;68.51
5053;BME280;2545;50.892;5.740;2023-03-13T11:14:26;56284.66;;;-142.21;63.90
5053;BME280;2545;50.892;5.740;2023-03-13T11:16:53;56288.56;;;-142.21;65.96
5053;BME280;2545;50.892;5.740;2023-03-13T11:19:28;56300.34;;;-142.21;68.05
5053;BME280;2545;50.892;5.740;2023-03-13T11:24:47;56319.94;;;-142.21;70.96
5053;BME280;2545;50.892;5.740;2023-03-13T11:30:03;56321.91;;;-142.21;70.82
5053;BME280;2545;50.892;5.740;2023-03-13T11:32:39;56286.63;;;-142.21;71.97
5053;BME280;2545;50.892;5.740;2023-03-13T11:37:57;56312.09;;;-142.21;72.19
5053;BME280;2545;50.892;5.740;2023-03-13T11:40:41;56294.47;;;-142.21;72.98
5053;BME280;2545;50.892;5.740;2023-03-13T11:59:33;56304.25;;;-142.21;70.29
5053;BME280;2545;50.892;5.740;2023-03-13T12:02:12;56270.91;;;-142.21;69.54
5053;BME280;2545;50.892;5.740;2023-03-13T12:04:43;56325.84;;;-142.21;69.22
5053;BME280;2545;50.892;5.740;2023-03-13T12:10:04;56337.59;;;-142.21;68.16
5053;BME280;2545;50.892;5.740;2023-03-13T12:12:43;56312.09;;;-142.21;68.76
5053;BME280;2545;50.892;5.740;2023-03-13T12:15:23;56298.38;;;-142.21;69.64
5053;BME280;2545;50.892;5.740;2023-03-13T12:17:54;56284.66;;;-142.21;70.22
5053;BME280;2545;50.892;5.740;2023-03-13T12:20:30;56314.06;;;-142.21;71.76
5053;BME280;2545;50.892;5.740;2023-03-13T12:23:17;56280.72;;;-142.21;72.77
5053;BME280;2545;50.892;5.740;2023-03-13T12:25:48;56280.72;;;-142.21;71.29
5053;BME280;2545;50.892;5.740;2023-03-13T12:37:05;56280.72;;;-142.21;67.30
5053;BME280;2545;50.892;5.740;2023-03-13T12:39:38;56296.41;;;-142.21;66.47
5053;BME280;2545;50.892;5.740;2023-03-13T12:44:58;56317.97;;;-142.21;66.10
5053;BME280;2545;50.892;5.740;2023-03-13T12:47:34;56278.78;;;-142.21;65.47
5053;BME280;2545;50.892;5.740;2023-03-13T12:50:14;56288.56;;;-142.21;64.24
5053;BME280;2545;50.892;5.740;2023-03-13T12:55:39;56288.56;;;-142.21;65.70
5053;BME280;2545;50.892;5.740;2023-03-13T12:58:45;56304.25;;;-142.21;67.90
5053;BME280;2545;50.892;5.740;2023-03-13T13:03:49;56321.91;;;-142.21;68.36
5053;BME280;2545;50.892;5.740;2023-03-13T13:06:16;56310.13;;;-142.21;68.74
5053;BME280;2545;50.892;5.740;2023-03-13T13:32:45;56306.22;;;-142.21;68.13
5053;BME280;2545;50.892;5.740;2023-03-13T13:37:37;56245.44;;;-142.21;69.40
5053;BME280;2545;50.892;5.740;2023-03-13T13:40:19;56302.28;;;-142.21;71.39
5053;BME280;2545;50.892;5.740;2023-03-13T13:43:00;56268.97;;;-142.21;70.85
5053;BME280;2545;50.892;5.740;2023-03-13T13:45:34;56312.09;;;-142.21;71.87
5053;BME280;2545;50.892;5.740;2023-03-13T13:50:38;56314.06;;;-142.21;70.59
5053;BME280;2545;50.892;5.740;2023-03-13T13:53:29;56323.88;;;-142.21;70.30
5053;BME280;2545;50.892;5.740;2023-03-13T13:55:54;56325.84;;;-142.21;71.37
5053;BME280;2545;50.892;5.740;2023-03-13T13:58:24;56351.31;;;-142.21;72.58
5053;BME280;2545;50.892;5.740;2023-03-13T14:00:55;56290.53;;;-142.21;73.51
5053;BME280;2545;50.892;5.740;2023-03-13T14:03:31;56312.09;;;-142.21;73.04
5053;BME280;2545;50.892;5.740;2023-03-13T14:06:21;56292.50;;;-142.21;74.41
5053;BME280;2545;50.892;5.740;2023-03-13T14:08:53;56288.56;;;-142.21;73.69
5053;BME280;2545;50.892;5.740;2023-03-13T14:11:24;56321.91;;;-142.21;73.65
5053;BME280;2545;50.892;5.740;2023-03-13T14:14:14;56319.94;;;-142.21;74.13
5053;BME280;2545;50.892;5.740;2023-03-13T14:16:48;56335.63;;;-142.21;72.28
5053;BME280;2545;50.892;5.740;2023-03-13T14:19:22;56357.22;;;-142.21;73.33
5053;BME280;2545;50.892;5.740;2023-03-13T14:21:48;56308.19;;;-142.21;72.58
5053;BME280;2545;50.892;5.740;2023-03-13T14:24:14;56302.28;;;-142.21;73.30
5053;BME280;2545;50.892;5.740;2023-03-13T14:26:44;56265.03;;;-142.21;71.55
5053;BME280;2545;50.892;5.740;2023-03-13T14:29:16;56327.78;;;-142.21;72.87
5053;BME280;2545;50.892;5.740;2023-03-13T14:31:50;56280.72;;;-142.21;71.25